KOTM/OTM METAR and TAF weather

Enter ICAO airport designator
Station Type Date Time Source
KOTM METAR 2021/03/07 07:53 UTC NOAA

KOTM 070753Z AUTO 13006KT 10SM CLR 04/M01 A3024 RMK AO2 SLP244 T00391011


Station Type Date Time Source
KOTM Decoded METAR 2021/03/07 07:53 UTC NOAA

OTTUMWA INDUSTRIAL AIRPORT, IA, United States (KOTM) 41-06N 092-27W 256M
Mar 07, 2021 - 02:53 AM EST / 2021.03.07 0753 UTC
Wind: from the SE (130 degrees) at 7 MPH (6 KT):0
Visibility: 10 mile(s):0
Sky conditions: clear
Temperature: 39.0 F (3.9 C)
Dew Point: 30.0 F (-1.1 C)
Relative Humidity: 69%
Pressure (altimeter): 30.24 in. Hg (1024 hPa)
ob: KOTM 070753Z AUTO 13006KT 10SM CLR 04/M01 A3024 RMK AO2 SLP244 T00391011
cycle: 8

Station Type Date Time Source
KOTM TAF 2021/03/07 06:28 UTC NOAA

TAF KOTM 070525Z 0706/0806 13006KT P6SM FEW250
FM071400 18010KT P6SM FEW250
FM071700 21012G22KT P6SM FEW250
FM080100 20011KT P6SM SKC WS020/23040KT

Example: see airport list